SBOSBO AUH / OMAA
Speedbird OnlineSpeedbird Online AUH / OMAA

Abu Dhabi International Airport
01:00 23.3°C

Location Abu Dhabi, United Arab Emirates
Latitude: 24.433000564575195
Longitude: 54.651100158691406
Local Time 01:00 on 24 Feb 2024
UTC +4 hours (Asia/Dubai)
Currency £1 equals AED 4.65
METAR OMAA 232000Z VRB02KT 8000 SCT009 20/18 Q1017 NOSIG
TAF TAF OMAA 231700Z 2318/2500 30010KT 8000 NSC BECMG 2318/2320 20005KT PROB40 2322/2406 4000 HZ BKN008 PROB30 2401/2405 0200 FG VV/// BECMG 2407/2409 32010KT BECMG 2416/2418 VRB02KT
Weather As Of 24 Feb 2024 01:00
Description Clear sky
Wind 11 km/h from West (278°)
Cloud Cover 0%
Precipitation Rain: none, Snow: none
Sunrise 06:49
Sunset 18:20
Rotations During the last 90 days there were
1 flights from LHR
Lounges Al Dhabi Lounge TEMPORARILY CLOSED, Terminal 1
Web Airport Website | Wikipedia
Codes IATA: AUH
ICAO: OMAA
Altitude 27 Meter / 88 Feet
Distance 5,478 KM / 3,404 Miles
from London.
Runways
RunwayLength (m)Surface
13L4100Asphalt
13R4100Asphalt
31L4100Asphalt
31R4100Asphalt
Radio
TypeDescriptionFrequency
APPRDR124.4
ATISATIS125.1
TWRTWR119.2
Live ATC



Support Speedbird Online

© 2017-2024 Speedbird Online